Time,TemperatureF,DewpointF,PressureIn,WindDirection,WindDirectionDegrees,WindSpeedMPH,WindSpeedGustMPH,Humidity,HourlyPrecipIn,Conditions,Clouds,dailyrainin,SoftwareType,DateUTC
2014-01-24 00:03:00,22.0,-11.0,28.41,NNE,22,7.0,9.0,22,0.00,,SKC,0.00,VWS V15.00,2014-01-24 06:03:00,
2014-01-24 00:08:00,22.0,-11.0,28.41,NNW,337,6.0,8.0,22,0.00,,SKC,0.00,VWS V15.00,2014-01-24 06:08:00,
2014-01-24 00:13:00,22.0,-11.9,28.41,NW,315,5.0,6.0,21,0.00,,SKC,0.00,VWS V15.00,2014-01-24 06:13:00,
2014-01-24 00:18:00,22.0,-11.0,28.41,North,360,3.0,9.0,22,0.00,,SKC,0.00,VWS V15.00,2014-01-24 06:18:00,
2014-01-24 00:23:00,22.0,-11.9,28.41,NNE,22,3.0,8.0,21,0.00,,SKC,0.00,VWS V15.00,2014-01-24 06:23:00,
2014-01-24 00:28:00,22.0,-11.9,28.41,North,360,6.0,9.0,21,0.00,,SKC,0.00,VWS V15.00,2014-01-24 06:28:00,
2014-01-24 00:33:00,22.0,-11.0,28.41,NNE,22,4.0,11.0,22,0.00,,SKC,0.00,VWS V15.00,2014-01-24 06:33:00,
2014-01-24 00:38:00,22.0,-11.0,28.41,NNW,337,7.0,8.0,22,0.00,,SKC,0.00,VWS V15.00,2014-01-24 06:38:00,
2014-01-24 00:43:00,22.0,-11.0,28.41,North,360,5.0,7.0,22,0.00,,SKC,0.00,VWS V15.00,2014-01-24 06:43:00,
2014-01-24 00:48:00,22.0,-11.0,28.41,NNW,337,5.0,10.0,22,0.00,,SKC,0.00,VWS V15.00,2014-01-24 06:48:00,
2014-01-24 00:53:00,22.0,-11.0,28.41,NNE,22,9.0,9.0,22,0.00,,SKC,0.00,VWS V15.00,2014-01-24 06:53:00,
2014-01-24 00:58:00,22.0,-11.9,28.41,NNE,22,6.0,10.0,21,0.00,,SKC,0.00,VWS V15.00,2014-01-24 06:58:00,
2014-01-24 01:03:00,22.0,-11.0,28.41,NNE,22,6.0,7.0,22,0.00,,SKC,0.00,VWS V15.00,2014-01-24 07:03:00,
2014-01-24 01:08:00,22.0,-11.0,28.41,North,360,5.0,6.0,22,0.00,,SKC,0.00,VWS V15.00,2014-01-24 07:08:00,
2014-01-24 01:13:00,22.0,-11.0,28.41,NNW,337,6.0,8.0,22,0.00,,SKC,0.00,VWS V15.00,2014-01-24 07:13:00,
2014-01-24 01:14:00,71.0,71.0,28.04,ENE,67,0.0,23.0,100,0.44,,SKC,0.00,VWS V15.00,2014-01-24 07:14:00,
2014-01-24 01:15:00,71.0,71.0,28.04,ENE,67,0.0,23.0,100,0.44,,SKC,0.00,VWS V15.00,2014-01-24 07:15:00,
2014-01-24 01:16:00,71.0,71.0,28.04,ENE,67,0.0,23.0,100,0.44,,SKC,0.00,VWS V15.00,2014-01-24 07:16:00,
2014-01-24 01:17:00,71.0,71.0,28.04,ENE,67,0.0,23.0,100,0.44,,SKC,0.00,VWS V15.00,2014-01-24 07:17:00,
2014-01-24 01:18:00,22.0,-11.0,28.41,NNE,22,6.0,6.0,22,0.00,,SKC,0.00,VWS V15.00,2014-01-24 07:18:00,
2014-01-24 01:23:00,22.0,-10.1,28.41,NNW,337,5.0,7.0,23,0.00,,SKC,0.00,VWS V15.00,2014-01-24 07:23:00,
2014-01-24 01:28:00,22.0,-11.0,28.41,NE,45,8.0,8.0,22,0.00,,SKC,0.00,VWS V15.00,2014-01-24 07:28:00,
2014-01-24 01:33:00,22.0,-10.1,28.41,North,360,5.0,7.0,23,0.00,,SKC,0.00,VWS V15.00,2014-01-24 07:33:00,
2014-01-24 01:38:00,22.0,-10.1,28.41,NW,315,8.0,8.0,23,0.00,,SKC,0.00,VWS V15.00,2014-01-24 07:38:00,
2014-01-24 01:43:00,22.0,-10.1,28.41,NNW,337,5.0,6.0,23,0.00,,SKC,0.00,VWS V15.00,2014-01-24 07:43:00,
2014-01-24 01:48:00,22.0,-10.1,28.41,NW,315,8.0,8.0,23,0.00,,SKC,0.00,VWS V15.00,2014-01-24 07:48:00,
2014-01-24 01:53:00,22.0,-11.0,28.41,NNE,22,4.0,6.0,22,0.00,,SKC,0.00,VWS V15.00,2014-01-24 07:53:00,
2014-01-24 01:58:00,22.0,-11.0,28.41,North,360,4.0,8.0,22,0.00,,SKC,0.00,VWS V15.00,2014-01-24 07:58:00,
2014-01-24 02:03:00,22.0,-11.0,28.41,NNE,22,6.0,7.0,22,0.00,,SKC,0.00,VWS V15.00,2014-01-24 08:03:00,
2014-01-24 02:08:00,22.0,-11.0,28.40,NE,45,5.0,8.0,22,0.00,,SKC,0.00,VWS V15.00,2014-01-24 08:08:00,
2014-01-24 02:13:00,21.0,-11.9,28.40,NNW,337,6.0,9.0,22,0.00,,SKC,0.00,VWS V15.00,2014-01-24 08:13:00,
2014-01-24 02:18:00,21.0,-11.9,28.40,North,360,7.0,10.0,22,0.00,,SKC,0.00,VWS V15.00,2014-01-24 08:18:00,
2014-01-24 02:23:00,21.0,-11.0,28.40,North,360,1.0,6.0,23,0.00,,SKC,0.00,VWS V15.00,2014-01-24 08:23:00,
2014-01-24 02:28:00,21.0,-11.0,28.40,North,360,1.0,4.0,23,0.00,,SKC,0.00,VWS V15.00,2014-01-24 08:28:00,
2014-01-24 02:33:00,21.0,-11.0,28.40,NNW,337,5.0,7.0,23,0.00,,SKC,0.00,VWS V15.00,2014-01-24 08:33:00,
2014-01-24 02:38:00,21.0,-11.0,28.40,North,360,6.0,6.0,23,0.00,,SKC,0.00,VWS V15.00,2014-01-24 08:38:00,
2014-01-24 02:43:00,21.0,-11.0,28.40,North,360,5.0,6.0,23,0.00,,SKC,0.00,VWS V15.00,2014-01-24 08:43:00,
2014-01-24 02:48:00,21.0,-11.0,28.40,North,360,7.0,7.0,23,0.00,,SKC,0.00,VWS V15.00,2014-01-24 08:48:00,
2014-01-24 02:53:00,21.0,-11.0,28.39,NNE,22,7.0,7.0,23,0.00,,SKC,0.00,VWS V15.00,2014-01-24 08:53:00,
2014-01-24 02:58:00,21.0,-10.1,28.39,North,360,3.0,7.0,24,0.00,,SKC,0.00,VWS V15.00,2014-01-24 08:58:00,
2014-01-24 03:00:00,17.0,17.0,28.06,ENE,67,6.0,6.0,100,0.00,,SKC,0.00,VWS V15.00,2014-01-24 09:00:00,
2014-01-24 03:03:00,21.0,-11.0,28.39,North,360,5.0,6.0,23,0.00,,SKC,0.00,VWS V15.00,2014-01-24 09:03:00,
2014-01-24 03:08:00,21.0,-11.0,28.39,North,360,5.0,8.0,23,0.00,,SKC,0.00,VWS V15.00,2014-01-24 09:08:00,
2014-01-24 03:13:00,21.0,-11.0,28.39,North,360,6.0,9.0,23,0.00,,SKC,0.00,VWS V15.00,2014-01-24 09:13:00,
2014-01-24 03:18:00,21.0,-11.0,28.39,NW,315,7.0,7.0,23,0.00,,SKC,0.00,VWS V15.00,2014-01-24 09:18:00,
2014-01-24 03:23:00,21.0,-11.0,28.39,NNE,22,6.0,9.0,23,0.00,,SKC,0.00,VWS V15.00,2014-01-24 09:23:00,
2014-01-24 03:28:00,21.0,-11.0,28.39,NNW,337,7.0,8.0,23,0.00,,SKC,0.00,VWS V15.00,2014-01-24 09:28:00,
2014-01-24 03:33:00,21.0,-11.0,28.39,NW,315,10.0,10.0,23,0.00,,SKC,0.00,VWS V15.00,2014-01-24 09:33:00,
2014-01-24 03:38:00,21.0,-11.0,28.39,NNW,337,5.0,7.0,23,0.00,,SKC,0.00,VWS V15.00,2014-01-24 09:38:00,
2014-01-24 03:43:00,21.0,-11.0,28.39,NNW,337,4.0,10.0,23,0.00,,SKC,0.00,VWS V15.00,2014-01-24 09:43:00,
2014-01-24 03:48:00,21.0,-11.0,28.39,North,360,4.0,7.0,23,0.00,,SKC,0.00,VWS V15.00,2014-01-24 09:48:00,
2014-01-24 03:53:00,21.0,-11.0,28.39,NNW,337,6.0,7.0,23,0.00,,SKC,0.00,VWS V15.00,2014-01-24 09:53:00,
2014-01-24 03:58:00,21.0,-10.1,28.39,North,360,5.0,5.0,24,0.00,,SKC,0.00,VWS V15.00,2014-01-24 09:58:00,
2014-01-24 04:03:00,21.0,-10.1,28.39,North,360,3.0,6.0,24,0.00,,SKC,0.00,VWS V15.00,2014-01-24 10:03:00,
2014-01-24 04:08:00,21.0,-10.1,28.39,NW,315,8.0,8.0,24,0.00,,SKC,0.00,VWS V15.00,2014-01-24 10:08:00,
2014-01-24 04:13:00,21.0,-10.1,28.39,NW,315,4.0,9.0,24,0.00,,SKC,0.00,VWS V15.00,2014-01-24 10:13:00,
2014-01-24 04:18:00,21.0,-10.1,28.39,NW,315,4.0,7.0,24,0.00,,SKC,0.00,VWS V15.00,2014-01-24 10:18:00,
2014-01-24 04:23:00,21.0,-10.1,28.39,NW,315,6.0,9.0,24,0.00,,SKC,0.00,VWS V15.00,2014-01-24 10:23:00,
2014-01-24 04:28:00,21.0,-10.1,28.39,North,360,6.0,6.0,24,0.00,,SKC,0.00,VWS V15.00,2014-01-24 10:28:00,
2014-01-24 04:33:00,21.0,-10.1,28.39,NNW,337,4.0,6.0,24,0.00,,SKC,0.00,VWS V15.00,2014-01-24 10:33:00,
2014-01-24 04:38:00,21.0,-11.9,28.39,North,360,4.0,6.0,22,0.00,,SKC,0.00,VWS V15.00,2014-01-24 10:38:00,
2014-01-24 04:41:00,51.0,11.4,27.84,SE,135,1.0,30.0,20,0.15,,SKC,0.00,VWS V15.00,2014-01-24 10:41:00,
2014-01-24 04:42:00,51.0,10.2,27.84,SE,135,0.0,30.0,19,0.15,,SKC,0.00,VWS V15.00,2014-01-24 10:42:00,
2014-01-24 04:43:00,21.0,-11.0,28.39,NNW,337,2.0,2.0,23,0.00,,SKC,0.00,VWS V15.00,2014-01-24 10:43:00,
2014-01-24 04:44:00,51.0,10.2,27.84,South,180,1.0,30.0,19,0.15,,SKC,0.00,VWS V15.00,2014-01-24 10:44:00,
2014-01-24 04:45:00,51.0,10.2,27.84,South,180,0.0,30.0,19,0.15,,SKC,0.00,VWS V15.00,2014-01-24 10:45:00,
2014-01-24 04:46:00,51.0,10.2,27.84,South,180,2.0,30.0,19,0.15,,SKC,0.00,VWS V15.00,2014-01-24 10:46:00,
2014-01-24 04:47:00,51.0,10.2,27.85,South,180,0.0,30.0,19,0.15,,SKC,0.00,VWS V15.00,2014-01-24 10:47:00,
2014-01-24 04:48:00,21.0,-11.0,28.38,NW,315,6.0,6.0,23,0.00,,SKC,0.00,VWS V15.00,2014-01-24 10:48:00,
2014-01-24 04:49:00,51.0,9.0,27.85,SSE,157,3.0,30.0,18,0.15,,SKC,0.00,VWS V15.00,2014-01-24 10:49:00,
2014-01-24 04:53:00,21.0,-11.0,28.39,NW,315,5.0,6.0,23,0.00,,SKC,0.00,VWS V15.00,2014-01-24 10:53:00,
2014-01-24 04:58:00,21.0,-11.9,28.38,WNW,292,7.0,7.0,22,0.00,,SKC,0.00,VWS V15.00,2014-01-24 10:58:00,
2014-01-24 05:03:00,21.0,-11.0,28.39,NW,315,6.0,7.0,23,0.00,,SKC,0.00,VWS V15.00,2014-01-24 11:03:00,
2014-01-24 05:08:00,21.0,-10.1,28.39,NNW,337,5.0,6.0,24,0.00,,SKC,0.00,VWS V15.00,2014-01-24 11:08:00,
2014-01-24 05:13:00,21.0,-11.0,28.39,WNW,292,9.0,9.0,23,0.00,,SKC,0.00,VWS V15.00,2014-01-24 11:13:00,
2014-01-24 05:18:00,21.0,-10.1,28.38,NW,315,9.0,9.0,24,0.00,,SKC,0.00,VWS V15.00,2014-01-24 11:18:00,
2014-01-24 05:23:00,20.0,-11.0,28.38,North,360,7.0,9.0,24,0.00,,SKC,0.00,VWS V15.00,2014-01-24 11:23:00,
2014-01-24 05:28:00,21.0,-10.1,28.38,NW,315,6.0,7.0,24,0.00,,SKC,0.00,VWS V15.00,2014-01-24 11:28:00,
2014-01-24 05:33:00,21.0,-9.3,28.39,NW,315,8.0,9.0,25,0.00,,SKC,0.00,VWS V15.00,2014-01-24 11:33:00,
2014-01-24 05:38:00,21.0,-8.5,28.38,NW,315,7.0,7.0,26,0.00,,SKC,0.00,VWS V15.00,2014-01-24 11:38:00,
2014-01-24 05:43:00,21.0,-8.5,28.38,North,360,7.0,8.0,26,0.00,,SKC,0.00,VWS V15.00,2014-01-24 11:43:00,
2014-01-24 05:48:00,21.0,-8.5,28.38,NW,315,5.0,7.0,26,0.00,,SKC,0.00,VWS V15.00,2014-01-24 11:48:00,
2014-01-24 05:51:00,50.0,9.4,27.83,SE,135,1.0,30.0,19,0.15,,SKC,0.00,VWS V15.00,2014-01-24 11:51:00,
2014-01-24 05:52:00,50.0,9.4,27.83,SE,135,0.0,30.0,19,0.15,,SKC,0.00,VWS V15.00,2014-01-24 11:52:00,
2014-01-24 05:53:00,20.0,-9.4,28.38,NW,315,6.0,10.0,26,0.00,,SKC,0.00,VWS V15.00,2014-01-24 11:53:00,
2014-01-24 05:58:00,20.0,-9.4,28.38,NW,315,6.0,7.0,26,0.00,,SKC,0.00,VWS V15.00,2014-01-24 11:58:00,
2014-01-24 06:02:00,100.0,61.1,27.91,SW,225,2.0,25.0,28,0.00,,SKC,0.00,VWS V15.00,2014-01-24 12:02:00,
2014-01-24 06:03:00,20.0,-8.6,28.38,NNW,337,4.0,8.0,27,0.00,,SKC,0.00,VWS V15.00,2014-01-24 12:03:00,
2014-01-24 06:04:00,100.0,60.0,27.91,WSW,247,8.0,25.0,27,0.00,,SKC,0.00,VWS V15.00,2014-01-24 12:04:00,
2014-01-24 06:05:00,100.0,60.0,27.91,SW,225,10.0,25.0,27,0.00,,SKC,0.00,VWS V15.00,2014-01-24 12:05:00,
2014-01-24 06:06:00,100.0,59.0,27.91,SSE,157,3.0,25.0,26,0.00,,SKC,0.00,VWS V15.00,2014-01-24 12:06:00,
2014-01-24 06:07:00,100.0,57.9,27.91,SSW,202,5.0,25.0,25,0.00,,SKC,0.00,VWS V15.00,2014-01-24 12:07:00,
2014-01-24 06:08:00,20.0,-8.6,28.38,NW,315,5.0,6.0,27,0.00,,SKC,0.00,VWS V15.00,2014-01-24 12:08:00,
2014-01-24 06:13:00,20.0,-7.8,28.38,NNW,337,5.0,6.0,28,0.00,,SKC,0.00,VWS V15.00,2014-01-24 12:13:00,
2014-01-24 06:15:00,100.0,60.0,27.90,South,180,4.0,25.0,27,0.00,,SKC,0.00,VWS V15.00,2014-01-24 12:15:00,
2014-01-24 06:16:00,100.0,61.1,27.90,East,90,7.0,25.0,28,0.00,,SKC,0.00,VWS V15.00,2014-01-24 12:16:00,
2014-01-24 06:17:00,100.0,60.0,27.90,SW,225,6.0,25.0,27,0.00,,SKC,0.00,VWS V15.00,2014-01-24 12:17:00,
2014-01-24 06:18:00,20.0,-7.8,28.38,NW,315,3.0,5.0,28,0.00,,SKC,0.00,VWS V15.00,2014-01-24 12:18:00,
2014-01-24 06:19:00,100.0,60.0,27.90,South,180,6.0,25.0,27,0.00,,SKC,0.00,VWS V15.00,2014-01-24 12:19:00,
2014-01-24 06:20:00,101.0,60.9,27.90,SW,225,9.0,25.0,27,0.00,,SKC,0.00,VWS V15.00,2014-01-24 12:20:00,
2014-01-24 06:23:00,20.0,-7.8,28.38,NNW,337,6.0,6.0,28,0.00,,SKC,0.00,VWS V15.00,2014-01-24 12:23:00,
2014-01-24 06:28:00,20.0,-7.8,28.38,NNW,337,4.0,5.0,28,0.00,,SKC,0.00,VWS V15.00,2014-01-24 12:28:00,
2014-01-24 06:33:00,20.0,-7.8,28.39,NW,315,4.0,5.0,28,0.00,,SKC,0.00,VWS V15.00,2014-01-24 12:33:00,
2014-01-24 06:37:00,17.0,17.0,28.03,NE,45,3.0,5.0,100,0.00,,SKC,0.00,VWS V15.00,2014-01-24 12:37:00,
2014-01-24 06:38:00,20.0,-7.8,28.39,WNW,292,5.0,6.0,28,0.00,,SKC,0.00,VWS V15.00,2014-01-24 12:38:00,
2014-01-24 06:39:00,17.0,17.0,28.03,East,90,5.0,7.0,100,0.00,,SKC,0.00,VWS V15.00,2014-01-24 12:39:00,
2014-01-24 06:40:00,17.0,17.0,28.02,East,90,2.0,2.0,100,0.00,,SKC,0.00,VWS V15.00,2014-01-24 12:40:00,
2014-01-24 06:41:00,17.0,17.0,28.02,ENE,67,8.0,9.0,100,0.00,,SKC,0.00,VWS V15.00,2014-01-24 12:41:00,
2014-01-24 06:42:00,17.0,17.0,28.02,ENE,67,4.0,10.0,100,0.00,,SKC,0.00,VWS V15.00,2014-01-24 12:42:00,
2014-01-24 06:43:00,20.0,-7.8,28.39,NW,315,6.0,7.0,28,0.00,,SKC,0.00,VWS V15.00,2014-01-24 12:43:00,
2014-01-24 06:48:00,20.0,-7.8,28.38,NW,315,4.0,5.0,28,0.00,,SKC,0.00,VWS V15.00,2014-01-24 12:48:00,
2014-01-24 06:53:00,20.0,-7.1,28.38,NW,315,6.0,6.0,29,0.00,,SKC,0.00,VWS V15.00,2014-01-24 12:53:00,
2014-01-24 06:58:00,20.0,-7.8,28.38,NW,315,6.0,6.0,28,0.00,,SKC,0.00,VWS V15.00,2014-01-24 12:58:00,
2014-01-24 07:03:00,20.0,-7.8,28.38,NW,315,7.0,7.0,28,0.00,,SKC,0.00,VWS V15.00,2014-01-24 13:03:00,
2014-01-24 07:08:00,20.0,-8.6,28.39,NW,315,2.0,4.0,27,0.00,,SKC,0.00,VWS V15.00,2014-01-24 13:08:00,
2014-01-24 07:13:00,20.0,-8.6,28.38,NNW,337,4.0,6.0,27,0.00,,SKC,0.00,VWS V15.00,2014-01-24 13:13:00,
2014-01-24 07:18:00,20.0,-8.6,28.38,NW,315,7.0,7.0,27,0.00,,SKC,0.00,VWS V15.00,2014-01-24 13:18:00,
2014-01-24 07:23:00,20.0,-8.6,28.38,WNW,292,6.0,7.0,27,0.00,,SKC,0.00,VWS V15.00,2014-01-24 13:23:00,
2014-01-24 07:28:00,20.0,-10.1,28.39,NW,315,6.0,6.0,25,0.00,,SKC,0.00,VWS V15.00,2014-01-24 13:28:00,
2014-01-24 07:33:00,20.0,-10.1,28.38,NW,315,7.0,7.0,25,0.00,,SKC,0.00,VWS V15.00,2014-01-24 13:33:00,
2014-01-24 07:38:00,19.0,-11.0,28.38,NW,315,6.0,7.0,25,0.00,,SKC,0.00,VWS V15.00,2014-01-24 13:38:00,
2014-01-24 07:43:00,19.0,-9.5,28.38,WNW,292,4.0,5.0,27,0.00,,SKC,0.00,VWS V15.00,2014-01-24 13:43:00,
2014-01-24 07:48:00,19.0,-10.2,28.38,NW,315,3.0,3.0,26,0.00,,SKC,0.00,VWS V15.00,2014-01-24 13:48:00,
2014-01-24 07:53:00,19.0,-10.2,28.38,NW,315,6.0,7.0,26,0.00,,SKC,0.00,VWS V15.00,2014-01-24 13:53:00,
2014-01-24 07:58:00,19.0,-9.5,28.38,NW,315,3.0,3.0,27,0.00,,SKC,0.00,VWS V15.00,2014-01-24 13:58:00,
2014-01-24 08:03:00,19.0,-8.0,28.38,NW,315,2.0,4.0,29,0.00,,SKC,0.00,VWS V15.00,2014-01-24 14:03:00,
2014-01-24 08:08:00,19.0,-8.7,28.38,WNW,292,6.0,6.0,28,0.00,,SKC,0.00,VWS V15.00,2014-01-24 14:08:00,
2014-01-24 08:13:00,19.0,-8.7,28.38,NW,315,5.0,6.0,28,0.00,,SKC,0.00,VWS V15.00,2014-01-24 14:13:00,
2014-01-24 08:14:00,94.0,70.7,28.09,South,180,5.0,23.0,47,0.44,,SKC,0.00,VWS V15.00,2014-01-24 14:14:00,
2014-01-24 08:15:00,94.0,70.1,28.09,SSW,202,7.0,23.0,46,0.44,,SKC,0.00,VWS V15.00,2014-01-24 14:15:00,
2014-01-24 08:16:00,94.0,70.7,28.09,SSW,202,7.0,23.0,47,0.44,,SKC,0.00,VWS V15.00,2014-01-24 14:16:00,
2014-01-24 08:17:00,94.0,70.1,28.09,SSE,157,6.0,23.0,46,0.44,,SKC,0.00,VWS V15.00,2014-01-24 14:17:00,
2014-01-24 08:18:00,19.0,-8.0,28.38,WNW,292,5.0,6.0,29,0.00,,SKC,0.00,VWS V15.00,2014-01-24 14:18:00,
2014-01-24 08:23:00,19.0,-8.0,28.37,West,270,6.0,7.0,29,0.00,,SKC,0.00,VWS V15.00,2014-01-24 14:23:00,
2014-01-24 08:28:00,19.0,-8.0,28.37,NW,315,5.0,6.0,29,0.00,,SKC,0.00,VWS V15.00,2014-01-24 14:28:00,
2014-01-24 08:33:00,19.0,-7.3,28.37,NW,315,6.0,6.0,30,0.00,,SKC,0.00,VWS V15.00,2014-01-24 14:33:00,
2014-01-24 08:38:00,18.0,-7.5,28.37,WNW,292,4.0,6.0,31,0.00,,SKC,0.00,VWS V15.00,2014-01-24 14:38:00,
2014-01-24 08:43:00,18.0,-7.5,28.37,WNW,292,6.0,6.0,31,0.00,,SKC,0.00,VWS V15.00,2014-01-24 14:43:00,
2014-01-24 08:48:00,19.0,-6.6,28.37,NW,315,3.0,4.0,31,0.00,,SKC,0.00,VWS V15.00,2014-01-24 14:48:00,
2014-01-24 08:51:00,46.0,16.3,27.78,South,180,2.0,30.0,30,0.15,,SKC,0.00,VWS V15.00,2014-01-24 14:51:00,
2014-01-24 08:52:00,46.0,15.5,27.78,South,180,0.0,30.0,29,0.15,,SKC,0.00,VWS V15.00,2014-01-24 14:52:00,
2014-01-24 08:53:00,19.0,-6.6,28.37,NW,315,4.0,7.0,31,0.00,,SKC,0.00,VWS V15.00,2014-01-24 14:53:00,
2014-01-24 08:54:00,46.0,15.5,27.78,SSE,157,1.0,30.0,29,0.15,,SKC,0.00,VWS V15.00,2014-01-24 14:54:00,
2014-01-24 08:55:00,46.0,15.5,27.78,SSE,157,3.0,30.0,29,0.15,,SKC,0.00,VWS V15.00,2014-01-24 14:55:00,
2014-01-24 08:56:00,46.0,15.5,27.78,SSE,157,3.0,30.0,29,0.15,,SKC,0.00,VWS V15.00,2014-01-24 14:56:00,
2014-01-24 08:58:00,19.0,-6.6,28.37,WNW,292,7.0,7.0,31,0.00,,SKC,0.00,VWS V15.00,2014-01-24 14:58:00,
2014-01-24 09:03:00,18.0,-7.5,28.37,NW,315,4.0,6.0,31,0.00,,SKC,0.00,VWS V15.00,2014-01-24 15:03:00,
2014-01-24 09:08:00,19.0,-6.0,28.37,WSW,247,6.0,7.0,32,0.00,,SKC,0.00,VWS V15.00,2014-01-24 15:08:00,
2014-01-24 09:12:00,17.0,17.0,28.02,East,90,3.0,4.0,100,0.00,,SKC,0.00,VWS V15.00,2014-01-24 15:12:00,
2014-01-24 09:13:00,19.0,-5.3,28.37,NW,315,7.0,7.0,33,0.00,,SKC,0.00,VWS V15.00,2014-01-24 15:13:00,
2014-01-24 09:14:00,17.0,17.0,28.02,East,90,4.0,5.0,100,0.00,,SKC,0.00,VWS V15.00,2014-01-24 15:14:00,
2014-01-24 09:15:00,17.0,17.0,28.02,ENE,67,4.0,4.0,100,0.00,,SKC,0.00,VWS V15.00,2014-01-24 15:15:00,
2014-01-24 09:18:00,19.0,-5.3,28.37,West,270,5.0,6.0,33,0.00,,SKC,0.00,VWS V15.00,2014-01-24 15:18:00,
2014-01-24 09:23:00,19.0,-5.3,28.37,NW,315,5.0,5.0,33,0.00,,SKC,0.00,VWS V15.00,2014-01-24 15:23:00,
2014-01-24 09:28:00,19.0,-5.3,28.37,NW,315,5.0,6.0,33,0.00,,SKC,0.00,VWS V15.00,2014-01-24 15:28:00,
2014-01-24 09:33:00,19.0,-5.3,28.37,WNW,292,6.0,6.0,33,0.00,,SKC,0.00,VWS V15.00,2014-01-24 15:33:00,
2014-01-24 09:38:00,20.0,-3.8,28.37,West,270,5.0,8.0,34,0.00,,SKC,0.00,VWS V15.00,2014-01-24 15:38:00,
2014-01-24 09:43:00,20.0,-3.8,28.37,NW,315,1.0,6.0,34,0.00,,SKC,0.00,VWS V15.00,2014-01-24 15:43:00,
2014-01-24 09:48:00,20.0,-5.1,28.37,WNW,292,7.0,9.0,32,0.00,,SKC,0.00,VWS V15.00,2014-01-24 15:48:00,
2014-01-24 09:53:00,20.0,-4.5,28.36,NW,315,5.0,7.0,33,0.00,,SKC,0.00,VWS V15.00,2014-01-24 15:53:00,
2014-01-24 09:58:00,20.0,-4.5,28.36,NW,315,2.0,4.0,33,0.00,,SKC,0.00,VWS V15.00,2014-01-24 15:58:00,
2014-01-24 10:03:00,20.0,-5.1,28.36,WNW,292,6.0,6.0,32,0.00,,SKC,0.00,VWS V15.00,2014-01-24 16:03:00,
2014-01-24 10:08:00,20.0,-5.1,28.36,WSW,247,3.0,3.0,32,0.00,,SKC,0.00,VWS V15.00,2014-01-24 16:08:00,
2014-01-24 10:13:00,21.0,-4.2,28.36,WSW,247,1.0,2.0,32,0.00,,SKC,0.00,VWS V15.00,2014-01-24 16:13:00,
2014-01-24 10:18:00,22.0,-3.3,28.36,West,270,5.0,6.0,32,0.00,,SKC,0.00,VWS V15.00,2014-01-24 16:18:00,
2014-01-24 10:23:00,22.0,-3.3,28.36,NW,315,4.0,5.0,32,0.00,,SKC,0.00,VWS V15.00,2014-01-24 16:23:00,
2014-01-24 10:28:00,23.0,-3.1,28.37,WNW,292,4.0,6.0,31,0.00,,SKC,0.00,VWS V15.00,2014-01-24 16:28:00,
2014-01-24 10:33:00,23.0,-4.5,28.37,West,270,6.0,7.0,29,0.00,,SKC,0.00,VWS V15.00,2014-01-24 16:33:00,
2014-01-24 10:38:00,24.0,-3.6,28.36,WSW,247,8.0,10.0,29,0.00,,SKC,0.00,VWS V15.00,2014-01-24 16:38:00,
2014-01-24 10:40:00,96.0,68.5,28.05,SSE,157,6.0,10.0,41,0.44,,SKC,0.00,VWS V15.00,2014-01-24 16:40:00,
2014-01-24 10:42:00,25.0,-3.5,28.36,West,270,5.0,5.0,28,0.00,,SKC,0.00,VWS V15.00,2014-01-24 16:42:00,
2014-01-24 10:45:00,45.0,16.2,27.77,South,180,2.0,30.0,31,0.15,,SKC,0.00,VWS V15.00,2014-01-24 16:45:00,
2014-01-24 10:46:00,45.0,16.2,27.77,South,180,3.0,30.0,31,0.15,,SKC,0.00,VWS V15.00,2014-01-24 16:46:00,
2014-01-24 10:47:00,25.0,-3.5,28.36,West,270,6.0,7.0,28,0.00,,SKC,0.00,VWS V15.00,2014-01-24 16:47:00,
2014-01-24 10:48:00,45.0,16.2,27.77,South,180,3.0,30.0,31,0.15,,SKC,0.00,VWS V15.00,2014-01-24 16:48:00,
2014-01-24 10:49:00,45.0,16.2,27.77,SSE,157,3.0,30.0,31,0.15,,SKC,0.00,VWS V15.00,2014-01-24 16:49:00,
2014-01-24 10:50:00,97.0,67.9,28.05,SW,225,12.0,12.0,39,0.44,,SKC,0.00,VWS V15.00,2014-01-24 16:50:00,
2014-01-24 10:51:00,97.0,67.9,28.05,SW,225,6.0,12.0,39,0.44,,SKC,0.00,VWS V15.00,2014-01-24 16:51:00,
2014-01-24 10:52:00,25.0,-3.5,28.36,WSW,247,2.0,2.0,28,0.00,,SKC,0.00,VWS V15.00,2014-01-24 16:52:00,
2014-01-24 10:53:00,97.0,67.9,28.05,WSW,247,9.0,13.0,39,0.44,,SKC,0.00,VWS V15.00,2014-01-24 16:53:00,
2014-01-24 10:56:00,46.0,16.3,27.77,South,180,3.0,30.0,30,0.15,,SKC,0.00,VWS V15.00,2014-01-24 16:56:00,
2014-01-24 10:57:00,26.0,-3.4,28.35,WNW,292,9.0,9.0,27,0.00,,SKC,0.00,VWS V15.00,2014-01-24 16:57:00,
2014-01-24 10:58:00,46.0,16.3,27.77,South,180,2.0,30.0,30,0.15,,SKC,0.00,VWS V15.00,2014-01-24 16:58:00,
2014-01-24 10:59:00,46.0,16.3,27.77,South,180,1.0,30.0,30,0.15,,SKC,0.00,VWS V15.00,2014-01-24 16:59:00,
2014-01-24 11:00:00,98.0,68.8,28.05,SW,225,4.0,13.0,39,0.44,,SKC,0.00,VWS V15.00,2014-01-24 17:00:00,
2014-01-24 11:01:00,98.0,68.8,28.05,South,180,5.0,13.0,39,0.44,,SKC,0.00,VWS V15.00,2014-01-24 17:01:00,
2014-01-24 11:02:00,26.0,-4.2,28.35,West,270,6.0,7.0,26,0.00,,SKC,0.00,VWS V15.00,2014-01-24 17:02:00,
2014-01-24 11:03:00,98.0,68.1,28.05,South,180,3.0,13.0,38,0.44,,SKC,0.00,VWS V15.00,2014-01-24 17:03:00,
2014-01-24 11:07:00,27.0,-3.3,28.34,SW,225,9.0,9.0,26,0.00,,SKC,0.00,VWS V15.00,2014-01-24 17:07:00,
2014-01-24 11:12:00,28.0,-4.1,28.34,SW,225,6.0,7.0,24,0.00,,SKC,0.00,VWS V15.00,2014-01-24 17:12:00,
2014-01-24 11:17:00,28.0,-4.1,28.34,WNW,292,1.0,1.0,24,0.00,,SKC,0.00,VWS V15.00,2014-01-24 17:17:00,
2014-01-24 11:22:00,28.0,-4.1,28.34,WSW,247,7.0,8.0,24,0.00,,SKC,0.00,VWS V15.00,2014-01-24 17:22:00,
2014-01-24 11:27:00,29.0,-3.3,28.34,SSW,202,6.0,6.0,24,0.00,,SKC,0.00,VWS V15.00,2014-01-24 17:27:00,
2014-01-24 11:32:00,30.0,-3.3,28.34,SSW,202,4.0,5.0,23,0.00,,SKC,0.00,VWS V15.00,2014-01-24 17:32:00,
2014-01-24 11:37:00,31.0,-4.3,28.33,SW,225,6.0,6.0,21,0.00,,SKC,0.00,VWS V15.00,2014-01-24 17:37:00,
2014-01-24 11:42:00,32.0,-3.5,28.33,SSW,202,9.0,9.0,21,0.00,,SKC,0.00,VWS V15.00,2014-01-24 17:42:00,
2014-01-24 11:43:00,46.0,16.3,27.77,SSW,202,4.0,30.0,30,0.15,,SKC,0.00,VWS V15.00,2014-01-24 17:43:00,
2014-01-24 11:44:00,46.0,16.3,27.77,South,180,3.0,30.0,30,0.15,,SKC,0.00,VWS V15.00,2014-01-24 17:44:00,
2014-01-24 11:45:00,46.0,16.3,27.77,South,180,3.0,30.0,30,0.15,,SKC,0.00,VWS V15.00,2014-01-24 17:45:00,
2014-01-24 11:46:00,46.0,16.3,27.77,South,180,4.0,30.0,30,0.15,,SKC,0.00,VWS V15.00,2014-01-24 17:46:00,
2014-01-24 11:47:00,32.0,-5.6,28.33,WSW,247,6.0,8.0,19,0.00,,SKC,0.00,VWS V15.00,2014-01-24 17:47:00,
2014-01-24 11:52:00,33.0,-4.8,28.32,SW,225,4.0,4.0,19,0.00,,SKC,0.00,VWS V15.00,2014-01-24 17:52:00,
2014-01-24 11:56:00,46.0,16.3,27.77,SSE,157,2.0,30.0,30,0.15,,SKC,0.00,VWS V15.00,2014-01-24 17:56:00,
2014-01-24 11:57:00,33.0,-7.0,28.32,WSW,247,9.0,9.0,17,0.00,,SKC,0.00,VWS V15.00,2014-01-24 17:57:00,
2014-01-24 11:58:00,46.0,16.3,27.77,South,180,3.0,30.0,30,0.15,,SKC,0.00,VWS V15.00,2014-01-24 17:58:00,
2014-01-24 11:59:00,46.0,16.3,27.77,SW,225,3.0,30.0,30,0.15,,SKC,0.00,VWS V15.00,2014-01-24 17:59:00,
2014-01-24 12:02:00,33.0,-7.0,28.32,WSW,247,6.0,6.0,17,0.00,,SKC,0.00,VWS V15.00,2014-01-24 18:02:00,
2014-01-24 12:07:00,33.0,-7.0,28.32,SW,225,3.0,3.0,17,0.00,,SKC,0.00,VWS V15.00,2014-01-24 18:07:00,
2014-01-24 12:12:00,34.0,-7.5,28.31,West,270,5.0,6.0,16,0.00,,SKC,0.00,VWS V15.00,2014-01-24 18:12:00,
2014-01-24 12:14:00,89.0,56.2,27.80,SSW,202,4.0,25.0,33,0.00,,SKC,0.00,VWS V15.00,2014-01-24 18:14:00,
2014-01-24 12:15:00,89.0,56.2,27.80,SSW,202,1.0,25.0,33,0.00,,SKC,0.00,VWS V15.00,2014-01-24 18:15:00,
2014-01-24 12:16:00,89.0,56.2,27.80,SW,225,3.0,25.0,33,0.00,,SKC,0.00,VWS V15.00,2014-01-24 18:16:00,
2014-01-24 12:17:00,34.0,-6.2,28.31,SW,225,7.0,9.0,17,0.00,,SKC,0.00,VWS V15.00,2014-01-24 18:17:00,
2014-01-24 12:18:00,89.0,57.0,27.80,SW,225,2.0,25.0,34,0.00,,SKC,0.00,VWS V15.00,2014-01-24 18:18:00,
2014-01-24 12:19:00,89.0,57.0,27.80,SW,225,4.0,25.0,34,0.00,,SKC,0.00,VWS V15.00,2014-01-24 18:19:00,
2014-01-24 12:20:00,89.0,57.0,27.80,SW,225,1.0,25.0,34,0.00,,SKC,0.00,VWS V15.00,2014-01-24 18:20:00,
2014-01-24 12:22:00,34.0,-7.5,28.30,SW,225,6.0,8.0,16,0.00,,SKC,0.00,VWS V15.00,2014-01-24 18:22:00,
2014-01-24 12:27:00,34.0,-10.2,28.30,West,270,6.0,10.0,14,0.00,,SKC,0.00,VWS V15.00,2014-01-24 18:27:00,
2014-01-24 12:32:00,35.0,-9.4,28.29,NW,315,6.0,11.0,14,0.00,,SKC,0.00,VWS V15.00,2014-01-24 18:32:00,
2014-01-24 12:37:00,35.0,-6.7,28.28,South,180,5.0,7.0,16,0.00,,SKC,0.00,VWS V15.00,2014-01-24 18:37:00,
2014-01-24 12:42:00,36.0,-7.2,28.28,SSE,157,6.0,8.0,15,0.00,,SKC,0.00,VWS V15.00,2014-01-24 18:42:00,
2014-01-24 12:47:00,36.0,-8.6,28.28,SW,225,6.0,6.0,14,0.00,,SKC,0.00,VWS V15.00,2014-01-24 18:47:00,
2014-01-24 12:52:00,36.0,-5.8,28.28,SSW,202,7.0,10.0,16,0.00,,SKC,0.00,VWS V15.00,2014-01-24 18:52:00,
2014-01-24 12:53:00,45.0,16.9,27.76,SSE,157,6.0,30.0,32,0.15,,SKC,0.00,VWS V15.00,2014-01-24 18:53:00,
2014-01-24 12:54:00,44.0,16.0,27.76,SSE,157,1.0,30.0,32,0.15,,SKC,0.00,VWS V15.00,2014-01-24 18:54:00,
2014-01-24 12:55:00,44.0,16.0,27.76,SSE,157,7.0,30.0,32,0.15,,SKC,0.00,VWS V15.00,2014-01-24 18:55:00,
2014-01-24 12:56:00,44.0,16.0,27.76,ESE,112,6.0,30.0,32,0.15,,SKC,0.00,VWS V15.00,2014-01-24 18:56:00,
2014-01-24 12:57:00,37.0,-7.8,28.27,West,270,6.0,12.0,14,0.00,,SKC,0.00,VWS V15.00,2014-01-24 18:57:00,
2014-01-24 12:58:00,45.0,16.9,27.76,SSW,202,0.0,30.0,32,0.15,,SKC,0.00,VWS V15.00,2014-01-24 18:58:00,
2014-01-24 13:02:00,37.0,-6.3,28.27,SSW,202,8.0,9.0,15,0.00,,SKC,0.00,VWS V15.00,2014-01-24 19:02:00,
2014-01-24 13:07:00,37.0,-9.3,28.27,West,270,4.0,7.0,13,0.00,,SKC,0.00,VWS V15.00,2014-01-24 19:07:00,
2014-01-24 13:12:00,38.0,-8.5,28.26,West,270,6.0,9.0,13,0.00,,SKC,0.00,VWS V15.00,2014-01-24 19:12:00,
2014-01-24 13:17:00,38.0,-8.5,28.26,South,180,0.0,7.0,13,0.00,,SKC,0.00,VWS V15.00,2014-01-24 19:17:00,
2014-01-24 13:22:00,39.0,-9.3,28.26,West,270,8.0,9.0,12,0.00,,SKC,0.00,VWS V15.00,2014-01-24 19:22:00,
2014-01-24 13:27:00,39.0,-9.3,28.25,SW,225,6.0,10.0,12,0.00,,SKC,0.00,VWS V15.00,2014-01-24 19:27:00,
2014-01-24 13:32:00,40.0,-10.3,28.25,SW,225,6.0,7.0,11,0.00,,SKC,0.00,VWS V15.00,2014-01-24 19:32:00,
2014-01-24 13:37:00,40.0,-10.3,28.25,SW,225,8.0,10.0,11,0.00,,SKC,0.00,VWS V15.00,2014-01-24 19:37:00,
2014-01-24 13:42:00,40.0,-10.3,28.25,WNW,292,7.0,10.0,11,0.00,,SKC,0.00,VWS V15.00,2014-01-24 19:42:00,
2014-01-24 13:43:00,48.0,16.5,27.79,SE,135,4.0,30.0,28,0.15,,SKC,0.00,VWS V15.00,2014-01-24 19:43:00,
2014-01-24 13:44:00,48.0,16.5,27.79,SE,135,5.0,30.0,28,0.15,,SKC,0.00,VWS V15.00,2014-01-24 19:44:00,
2014-01-24 13:45:00,48.0,16.5,27.79,SSW,202,1.0,30.0,28,0.15,,SKC,0.00,VWS V15.00,2014-01-24 19:45:00,
2014-01-24 13:46:00,48.0,16.5,27.79,SSE,157,2.0,30.0,28,0.15,,SKC,0.00,VWS V15.00,2014-01-24 19:46:00,
2014-01-24 13:47:00,41.0,-9.5,28.24,SSW,202,8.0,9.0,11,0.00,,SKC,0.00,VWS V15.00,2014-01-24 19:47:00,
2014-01-24 13:48:00,49.0,16.5,27.80,SE,135,7.0,30.0,27,0.15,,SKC,0.00,VWS V15.00,2014-01-24 19:48:00,
2014-01-24 13:49:00,49.0,17.3,27.80,SE,135,6.0,30.0,28,0.15,,SKC,0.00,VWS V15.00,2014-01-24 19:49:00,
2014-01-24 13:52:00,41.0,-13.5,28.24,South,180,3.0,9.0,9,0.00,,SKC,0.00,VWS V15.00,2014-01-24 19:52:00,
2014-01-24 13:57:00,41.0,-11.4,28.24,West,270,9.0,13.0,10,0.00,,SKC,0.00,VWS V15.00,2014-01-24 19:57:00,
2014-01-24 13:58:00,86.0,57.5,27.82,SW,225,2.0,25.0,38,0.00,,SKC,0.00,VWS V15.00,2014-01-24 19:58:00,
2014-01-24 13:59:00,86.0,57.5,27.82,SW,225,2.0,25.0,38,0.00,,SKC,0.00,VWS V15.00,2014-01-24 19:59:00,
2014-01-24 14:00:00,86.0,58.2,27.82,SW,225,2.0,25.0,39,0.00,,SKC,0.00,VWS V15.00,2014-01-24 20:00:00,
2014-01-24 14:01:00,86.0,58.2,27.82,SW,225,2.0,25.0,39,99.99,,SKC,0.00,VWS V15.00,2014-01-24 20:01:00,
2014-01-24 14:02:00,41.0,-11.4,28.23,SW,225,6.0,9.0,10,0.00,,SKC,0.00,VWS V15.00,2014-01-24 20:02:00,
2014-01-24 14:03:00,86.0,58.2,27.82,SW,225,3.0,25.0,39,0.00,,SKC,0.00,VWS V15.00,2014-01-24 20:03:00,
2014-01-24 14:04:00,85.0,57.3,27.82,SW,225,4.0,25.0,39,0.00,,SKC,0.00,VWS V15.00,2014-01-24 20:04:00,
2014-01-24 14:05:00,85.0,57.3,27.82,SW,225,5.0,25.0,39,0.00,,SKC,0.00,VWS V15.00,2014-01-24 20:05:00,
2014-01-24 14:06:00,85.0,57.3,27.82,SW,225,1.0,25.0,39,0.00,,SKC,0.00,VWS V15.00,2014-01-24 20:06:00,
2014-01-24 14:07:00,42.0,-8.7,28.23,WSW,247,10.0,12.0,11,0.00,,SKC,0.00,VWS V15.00,2014-01-24 20:07:00,
2014-01-24 14:12:00,41.0,-11.4,28.23,West,270,6.0,8.0,10,0.00,,SKC,0.00,VWS V15.00,2014-01-24 20:12:00,
2014-01-24 14:17:00,41.0,-9.5,28.23,WSW,247,7.0,9.0,11,0.00,,SKC,0.00,VWS V15.00,2014-01-24 20:17:00,
2014-01-24 14:22:00,42.0,-6.9,28.22,SW,225,10.0,14.0,12,0.00,,SKC,0.00,VWS V15.00,2014-01-24 20:22:00,
2014-01-24 14:27:00,42.0,-5.3,28.22,West,270,7.0,9.0,13,0.00,,SKC,0.00,VWS V15.00,2014-01-24 20:27:00,
2014-01-24 14:32:00,42.0,-5.3,28.22,WSW,247,8.0,10.0,13,0.00,,SKC,0.00,VWS V15.00,2014-01-24 20:32:00,
2014-01-24 14:37:00,42.0,0.4,28.21,West,270,7.0,13.0,17,0.00,,SKC,0.00,VWS V15.00,2014-01-24 20:37:00,
2014-01-24 14:42:00,42.0,-2.3,28.21,WSW,247,6.0,9.0,15,0.00,,SKC,0.00,VWS V15.00,2014-01-24 20:42:00,
2014-01-24 14:47:00,43.0,2.4,28.21,SW,225,14.0,16.0,18,0.00,,SKC,0.00,VWS V15.00,2014-01-24 20:47:00,
2014-01-24 14:49:00,51.0,17.3,27.81,South,180,4.0,30.0,26,0.15,,SKC,0.00,VWS V15.00,2014-01-24 20:49:00,
2014-01-24 14:50:00,51.0,18.2,27.81,South,180,5.0,30.0,27,0.15,,SKC,0.00,VWS V15.00,2014-01-24 20:50:00,
2014-01-24 14:51:00,51.0,17.3,27.81,South,180,5.0,30.0,26,0.15,,SKC,0.00,VWS V15.00,2014-01-24 20:51:00,
2014-01-24 14:52:00,43.0,-0.1,28.21,WSW,247,8.0,12.0,16,0.00,,SKC,0.00,VWS V15.00,2014-01-24 20:52:00,
2014-01-24 14:57:00,43.0,1.2,28.21,West,270,6.0,9.0,17,0.00,,SKC,0.00,VWS V15.00,2014-01-24 20:57:00,
2014-01-24 15:02:00,43.0,1.2,28.20,SW,225,6.0,12.0,17,0.00,,SKC,0.00,VWS V15.00,2014-01-24 21:02:00,
2014-01-24 15:07:00,43.0,1.2,28.20,WSW,247,5.0,11.0,17,0.00,,SKC,0.00,VWS V15.00,2014-01-24 21:07:00,
2014-01-24 15:12:00,44.0,3.2,28.19,West,270,6.0,12.0,18,0.00,,SKC,0.00,VWS V15.00,2014-01-24 21:12:00,
2014-01-24 15:17:00,43.0,2.4,28.19,West,270,5.0,9.0,18,0.00,,SKC,0.00,VWS V15.00,2014-01-24 21:17:00,
2014-01-24 15:22:00,44.0,3.2,28.19,SW,225,5.0,6.0,18,0.00,,SKC,0.00,VWS V15.00,2014-01-24 21:22:00,
2014-01-24 15:27:00,44.0,3.2,28.19,WSW,247,7.0,12.0,18,0.00,,SKC,0.00,VWS V15.00,2014-01-24 21:27:00,
2014-01-24 15:32:00,44.0,3.2,28.19,SW,225,12.0,12.0,18,0.00,,SKC,0.00,VWS V15.00,2014-01-24 21:32:00,
2014-01-24 15:34:00,56.0,20.7,27.83,SSW,202,8.0,30.0,25,0.15,,SKC,0.00,VWS V15.00,2014-01-24 21:34:00,
2014-01-24 15:35:00,56.0,20.7,27.83,SSW,202,6.0,30.0,25,0.15,,SKC,0.00,VWS V15.00,2014-01-24 21:35:00,
2014-01-24 15:36:00,56.0,20.7,27.83,South,180,5.0,30.0,25,0.15,,SKC,0.00,VWS V15.00,2014-01-24 21:36:00,
2014-01-24 15:37:00,45.0,4.1,28.18,West,270,7.0,9.0,18,0.00,,SKC,0.00,VWS V15.00,2014-01-24 21:37:00,
2014-01-24 15:42:00,44.0,4.4,28.18,WSW,247,7.0,9.0,19,0.00,,SKC,0.00,VWS V15.00,2014-01-24 21:42:00,
2014-01-24 15:47:00,44.0,4.4,28.18,SW,225,9.0,9.0,19,0.00,,SKC,0.00,VWS V15.00,2014-01-24 21:47:00,
2014-01-24 15:52:00,45.0,4.1,28.18,SW,225,6.0,10.0,18,0.00,,SKC,0.00,VWS V15.00,2014-01-24 21:52:00,
2014-01-24 15:57:00,45.0,5.2,28.17,WSW,247,7.0,11.0,19,0.00,,SKC,0.00,VWS V15.00,2014-01-24 21:57:00,
2014-01-24 16:02:00,46.0,7.2,28.17,West,270,9.0,11.0,20,0.00,,SKC,0.00,VWS V15.00,2014-01-24 22:02:00,
2014-01-24 16:07:00,46.0,8.3,28.17,WSW,247,7.0,13.0,21,0.00,,SKC,0.00,VWS V15.00,2014-01-24 22:07:00,
2014-01-24 16:08:00,83.0,58.9,27.81,SW,225,1.0,25.0,44,0.00,,SKC,0.00,VWS V15.00,2014-01-24 22:08:00,
2014-01-24 16:09:00,82.0,58.6,27.81,South,180,1.0,25.0,45,0.00,,SKC,0.00,VWS V15.00,2014-01-24 22:09:00,
2014-01-24 16:10:00,82.0,58.6,27.81,SSW,202,4.0,25.0,45,0.00,,SKC,0.00,VWS V15.00,2014-01-24 22:10:00,
2014-01-24 16:11:00,82.0,58.6,27.81,SSW,202,2.0,25.0,45,0.00,,SKC,0.00,VWS V15.00,2014-01-24 22:11:00,
2014-01-24 16:12:00,45.0,8.5,28.17,West,270,9.0,10.0,22,0.00,,SKC,0.00,VWS V15.00,2014-01-24 22:12:00,
2014-01-24 16:17:00,46.0,9.3,28.16,SW,225,12.0,12.0,22,0.00,,SKC,0.00,VWS V15.00,2014-01-24 22:17:00,
2014-01-24 16:22:00,45.0,7.4,28.16,SW,225,7.0,11.0,21,0.00,,SKC,0.00,VWS V15.00,2014-01-24 22:22:00,
2014-01-24 16:27:00,45.0,7.4,28.15,SW,225,8.0,10.0,21,0.00,,SKC,0.00,VWS V15.00,2014-01-24 22:27:00,
2014-01-24 16:32:00,46.0,9.3,28.15,SSW,202,6.0,10.0,22,0.00,,SKC,0.00,VWS V15.00,2014-01-24 22:32:00,
2014-01-24 16:37:00,46.0,9.3,28.15,WSW,247,6.0,9.0,22,0.00,,SKC,0.00,VWS V15.00,2014-01-24 22:37:00,
2014-01-24 16:42:00,46.0,9.3,28.14,WSW,247,4.0,10.0,22,0.00,,SKC,0.00,VWS V15.00,2014-01-24 22:42:00,
2014-01-24 16:47:00,46.0,10.3,28.15,WSW,247,10.0,11.0,23,0.00,,SKC,0.00,VWS V15.00,2014-01-24 22:47:00,
2014-01-24 16:52:00,46.0,10.3,28.14,SW,225,6.0,8.0,23,0.00,,SKC,0.00,VWS V15.00,2014-01-24 22:52:00,
2014-01-24 16:57:00,46.0,9.3,28.14,WSW,247,9.0,9.0,22,0.00,,SKC,0.00,VWS V15.00,2014-01-24 22:57:00,
2014-01-24 17:02:00,46.0,10.3,28.14,West,270,6.0,9.0,23,0.00,,SKC,0.00,VWS V15.00,2014-01-24 23:02:00,
2014-01-24 17:07:00,46.0,10.3,28.14,SW,225,10.0,10.0,23,0.00,,SKC,0.00,VWS V15.00,2014-01-24 23:07:00,
2014-01-24 17:12:00,46.0,10.3,28.13,WSW,247,7.0,12.0,23,0.00,,SKC,0.00,VWS V15.00,2014-01-24 23:12:00,
2014-01-24 17:17:00,46.0,10.3,28.13,SW,225,8.0,11.0,23,0.00,,SKC,0.00,VWS V15.00,2014-01-24 23:17:00,
2014-01-24 17:22:00,46.0,10.3,28.13,SW,225,4.0,7.0,23,0.00,,SKC,0.00,VWS V15.00,2014-01-24 23:22:00,
2014-01-24 17:27:00,46.0,11.2,28.13,SW,225,9.0,12.0,24,0.00,,SKC,0.00,VWS V15.00,2014-01-24 23:27:00,
2014-01-24 17:32:00,45.0,10.4,28.12,SW,225,9.0,11.0,24,0.00,,SKC,0.00,VWS V15.00,2014-01-24 23:32:00,
2014-01-24 17:37:00,45.0,10.4,28.12,SW,225,5.0,9.0,24,0.00,,SKC,0.00,VWS V15.00,2014-01-24 23:37:00,
2014-01-24 17:41:00,67.0,24.6,27.84,SE,135,6.0,30.0,20,0.15,,SKC,0.00,VWS V15.00,2014-01-24 23:41:00,
2014-01-24 17:42:00,45.0,10.4,28.12,SW,225,2.0,5.0,24,0.00,,SKC,0.00,VWS V15.00,2014-01-24 23:42:00,
2014-01-24 17:43:00,67.0,24.6,27.84,South,180,7.0,30.0,20,0.15,,SKC,0.00,VWS V15.00,2014-01-24 23:43:00,
2014-01-24 17:44:00,67.0,24.6,27.84,South,180,7.0,30.0,20,0.15,,SKC,0.00,VWS V15.00,2014-01-24 23:44:00,
2014-01-24 17:45:00,67.0,25.8,27.84,South,180,6.0,30.0,21,0.15,,SKC,0.00,VWS V15.00,2014-01-24 23:45:00,
2014-01-24 17:47:00,44.0,9.5,28.12,WSW,247,5.0,6.0,24,0.00,,SKC,0.00,VWS V15.00,2014-01-24 23:47:00,
2014-01-24 17:51:00,68.0,25.5,27.85,SE,135,7.0,30.0,20,0.15,,SKC,0.00,VWS V15.00,2014-01-24 23:51:00,
2014-01-24 17:52:00,44.0,10.4,28.11,SW,225,5.0,7.0,25,0.00,,SKC,0.00,VWS V15.00,2014-01-24 23:52:00,
2014-01-24 17:53:00,68.0,25.5,27.84,South,180,3.0,30.0,20,0.15,,SKC,0.00,VWS V15.00,2014-01-24 23:53:00,
2014-01-24 17:54:00,68.0,25.5,27.84,WSW,247,6.0,30.0,20,0.15,,SKC,0.00,VWS V15.00,2014-01-24 23:54:00,
2014-01-24 17:55:00,68.0,25.5,27.84,SE,135,4.0,30.0,20,0.15,,SKC,0.00,VWS V15.00,2014-01-24 23:55:00,
2014-01-24 17:57:00,43.0,10.5,28.11,WSW,247,4.0,4.0,26,0.00,,SKC,0.00,VWS V15.00,2014-01-24 23:57:00,
2014-01-24 17:58:00,82.0,62.7,27.97,ESE,112,4.0,15.0,52,0.44,,SKC,0.00,VWS V15.00,2014-01-24 23:58:00,
2014-01-24 17:59:00,82.0,62.7,27.97,SE,135,4.0,15.0,52,0.44,,SKC,0.00,VWS V15.00,2014-01-24 23:59:00,
2014-01-24 18:00:00,81.0,61.7,27.97,SSE,157,1.0,15.0,52,0.44,,SKC,0.00,VWS V15.00,2014-01-25 00:00:00,
2014-01-24 18:01:00,82.0,62.7,27.97,South,180,4.0,15.0,52,0.44,,SKC,0.00,VWS V15.00,2014-01-25 00:01:00,
2014-01-24 18:02:00,43.0,10.5,28.11,SW,225,3.0,5.0,26,0.00,,SKC,0.00,VWS V15.00,2014-01-25 00:02:00,
2014-01-24 18:03:00,81.0,62.3,27.97,SSE,157,0.0,15.0,53,0.44,,SKC,0.00,VWS V15.00,2014-01-25 00:03:00,
2014-01-24 18:04:00,81.0,62.3,27.97,SE,135,6.0,15.0,53,0.44,,SKC,0.00,VWS V15.00,2014-01-25 00:04:00,
2014-01-24 18:05:00,81.0,62.3,27.97,SW,225,0.0,15.0,53,0.44,,SKC,0.00,VWS V15.00,2014-01-25 00:05:00,
2014-01-24 18:06:00,82.0,62.7,27.97,ESE,112,1.0,15.0,52,0.44,,SKC,0.00,VWS V15.00,2014-01-25 00:06:00,
2014-01-24 18:07:00,42.0,10.5,28.10,West,270,6.0,8.0,27,0.00,,SKC,0.00,VWS V15.00,2014-01-25 00:07:00,
2014-01-24 18:08:00,81.0,62.3,27.97,South,180,6.0,15.0,53,0.44,,SKC,0.00,VWS V15.00,2014-01-25 00:08:00,
2014-01-24 18:12:00,42.0,12.1,28.10,SW,225,5.0,7.0,29,0.00,,SKC,0.00,VWS V15.00,2014-01-25 00:12:00,
2014-01-24 18:17:00,42.0,12.8,28.09,SW,225,5.0,6.0,30,0.00,,SKC,0.00,VWS V15.00,2014-01-25 00:17:00,
2014-01-24 18:22:00,42.0,12.8,28.09,SW,225,2.0,3.0,30,0.00,,SKC,0.00,VWS V15.00,2014-01-25 00:22:00,
2014-01-24 18:27:00,41.0,12.7,28.09,SW,225,2.0,4.0,31,0.00,,SKC,0.00,VWS V15.00,2014-01-25 00:27:00,
2014-01-24 18:32:00,40.0,11.8,28.09,SW,225,0.0,0.0,31,0.00,,SKC,0.00,VWS V15.00,2014-01-25 00:32:00,
2014-01-24 18:37:00,40.0,12.5,28.09,SW,225,0.0,0.0,32,0.00,,SKC,0.00,VWS V15.00,2014-01-25 00:37:00,
2014-01-24 18:42:00,39.0,11.7,28.09,SW,225,0.0,0.0,32,0.00,,SKC,0.00,VWS V15.00,2014-01-25 00:42:00,
2014-01-24 18:47:00,38.0,12.1,28.09,SW,225,0.0,1.0,34,0.00,,SKC,0.00,VWS V15.00,2014-01-25 00:47:00,
2014-01-24 18:52:00,38.0,12.1,28.09,SW,225,0.0,0.0,34,0.00,,SKC,0.00,VWS V15.00,2014-01-25 00:52:00,
2014-01-24 18:57:00,37.0,12.5,28.09,SW,225,1.0,2.0,36,0.00,,SKC,0.00,VWS V15.00,2014-01-25 00:57:00,
2014-01-24 19:02:00,37.0,12.5,28.09,SW,225,1.0,4.0,36,0.00,,SKC,0.00,VWS V15.00,2014-01-25 01:02:00,
2014-01-24 19:07:00,37.0,12.5,28.08,SW,225,1.0,3.0,36,0.00,,SKC,0.00,VWS V15.00,2014-01-25 01:07:00,
2014-01-24 19:12:00,37.0,13.2,28.09,SW,225,5.0,5.0,37,0.00,,SKC,0.00,VWS V15.00,2014-01-25 01:12:00,
2014-01-24 19:17:00,37.0,13.2,28.08,SW,225,6.0,6.0,37,0.00,,SKC,0.00,VWS V15.00,2014-01-25 01:17:00,
2014-01-24 19:22:00,37.0,12.5,28.09,SW,225,5.0,6.0,36,0.00,,SKC,0.00,VWS V15.00,2014-01-25 01:22:00,
2014-01-24 19:27:00,37.0,12.5,28.09,SW,225,4.0,4.0,36,0.00,,SKC,0.00,VWS V15.00,2014-01-25 01:27:00,
2014-01-24 19:32:00,37.0,12.5,28.09,WSW,247,0.0,1.0,36,0.00,,SKC,0.00,VWS V15.00,2014-01-25 01:32:00,
2014-01-24 19:37:00,37.0,13.2,28.09,WSW,247,1.0,2.0,37,0.00,,SKC,0.00,VWS V15.00,2014-01-25 01:37:00,
2014-01-24 19:42:00,36.0,12.9,28.09,WSW,247,3.0,4.0,38,0.00,,SKC,0.00,VWS V15.00,2014-01-25 01:42:00,
2014-01-24 19:43:00,75.0,28.7,27.80,SE,135,5.0,30.0,18,0.15,,SKC,0.00,VWS V15.00,2014-01-25 01:43:00,
2014-01-24 19:44:00,75.0,27.3,27.80,SE,135,10.0,30.0,17,0.15,,SKC,0.00,VWS V15.00,2014-01-25 01:44:00,
2014-01-24 19:45:00,74.0,27.9,27.80,SSE,157,10.0,30.0,18,0.15,,SKC,0.00,VWS V15.00,2014-01-25 01:45:00,
2014-01-24 19:46:00,74.0,27.9,27.80,SSE,157,6.0,30.0,18,0.15,,SKC,0.00,VWS V15.00,2014-01-25 01:46:00,
2014-01-24 19:47:00,36.0,13.5,28.09,WSW,247,4.0,4.0,39,0.00,,SKC,0.00,VWS V15.00,2014-01-25 01:47:00,
2014-01-24 19:48:00,74.0,27.9,27.80,SE,135,6.0,30.0,18,0.15,,SKC,0.00,VWS V15.00,2014-01-25 01:48:00,
2014-01-24 19:49:00,74.0,27.9,27.80,SSE,157,5.0,30.0,18,0.15,,SKC,0.00,VWS V15.00,2014-01-25 01:49:00,
2014-01-24 19:50:00,74.0,27.9,27.80,SE,135,9.0,30.0,18,0.15,,SKC,0.00,VWS V15.00,2014-01-25 01:50:00,
2014-01-24 19:51:00,74.0,27.9,27.80,SSE,157,7.0,30.0,18,0.15,,SKC,0.00,VWS V15.00,2014-01-25 01:51:00,
2014-01-24 19:52:00,35.0,12.6,28.08,WSW,247,1.0,2.0,39,0.00,,SKC,0.00,VWS V15.00,2014-01-25 01:52:00,
2014-01-24 19:53:00,74.0,27.9,27.80,SSE,157,7.0,30.0,18,0.15,,SKC,0.00,VWS V15.00,2014-01-25 01:53:00,
2014-01-24 19:57:00,35.0,12.6,28.08,SW,225,2.0,5.0,39,0.00,,SKC,0.00,VWS V15.00,2014-01-25 01:57:00,
2014-01-24 20:02:00,35.0,13.1,28.08,WSW,247,5.0,6.0,40,0.00,,SKC,0.00,VWS V15.00,2014-01-25 02:02:00,
2014-01-24 20:07:00,35.0,12.6,28.08,SW,225,5.0,6.0,39,0.00,,SKC,0.00,VWS V15.00,2014-01-25 02:07:00,
2014-01-24 20:10:00,80.0,61.9,27.84,SW,225,5.0,25.0,54,0.00,,SKC,0.00,VWS V15.00,2014-01-25 02:10:00,
2014-01-24 20:11:00,80.0,62.4,27.84,SW,225,2.0,25.0,55,0.00,,SKC,0.00,VWS V15.00,2014-01-25 02:11:00,
2014-01-24 20:12:00,35.0,12.6,28.07,SW,225,5.0,6.0,39,0.00,,SKC,0.00,VWS V15.00,2014-01-25 02:12:00,
2014-01-24 20:13:00,81.0,62.8,27.85,SSW,202,3.0,25.0,54,0.00,,SKC,0.00,VWS V15.00,2014-01-25 02:13:00,
2014-01-24 20:17:00,35.0,12.6,28.07,SW,225,3.0,6.0,39,0.00,,SKC,0.00,VWS V15.00,2014-01-25 02:17:00,
2014-01-24 20:22:00,35.0,12.6,28.07,SW,225,6.0,7.0,39,0.00,,SKC,0.00,VWS V15.00,2014-01-25 02:22:00,
2014-01-24 20:27:00,35.0,12.6,28.07,SW,225,7.0,7.0,39,0.00,,SKC,0.00,VWS V15.00,2014-01-25 02:27:00,
2014-01-24 20:32:00,35.0,13.1,28.08,WSW,247,6.0,7.0,40,0.00,,SKC,0.00,VWS V15.00,2014-01-25 02:32:00,
2014-01-24 20:37:00,35.0,13.7,28.08,WSW,247,4.0,5.0,41,0.00,,SKC,0.00,VWS V15.00,2014-01-25 02:37:00,
2014-01-24 20:41:00,76.0,26.6,27.78,South,180,4.0,30.0,16,0.15,,SKC,0.00,VWS V15.00,2014-01-25 02:41:00,
2014-01-24 20:42:00,34.0,12.8,28.08,SW,225,7.0,8.0,41,0.00,,SKC,0.00,VWS V15.00,2014-01-25 02:42:00,
2014-01-24 20:43:00,77.0,27.4,27.78,South,180,6.0,30.0,16,0.15,,SKC,0.00,VWS V15.00,2014-01-25 02:43:00,
2014-01-24 20:44:00,77.0,27.4,27.78,SE,135,3.0,30.0,16,0.15,,SKC,0.00,VWS V15.00,2014-01-25 02:44:00,
2014-01-24 20:45:00,77.0,27.4,27.78,SE,135,6.0,30.0,16,0.15,,SKC,0.00,VWS V15.00,2014-01-25 02:45:00,
2014-01-24 20:47:00,34.0,12.8,28.07,SW,225,6.0,9.0,41,0.00,,SKC,0.00,VWS V15.00,2014-01-25 02:47:00,
2014-01-24 20:52:00,34.0,12.8,28.07,WSW,247,5.0,6.0,41,0.00,,SKC,0.00,VWS V15.00,2014-01-25 02:52:00,
2014-01-24 20:57:00,34.0,12.8,28.07,SW,225,5.0,6.0,41,0.00,,SKC,0.00,VWS V15.00,2014-01-25 02:57:00,
2014-01-24 21:02:00,34.0,12.8,28.07,SW,225,4.0,7.0,41,0.00,,SKC,0.00,VWS V15.00,2014-01-25 03:02:00,
2014-01-24 21:04:00,74.0,63.2,27.93,SSW,202,0.0,15.0,69,0.44,,SKC,0.00,VWS V15.00,2014-01-25 03:04:00,
2014-01-24 21:05:00,74.0,63.6,27.93,SSW,202,0.0,15.0,70,0.44,,SKC,0.00,VWS V15.00,2014-01-25 03:05:00,
2014-01-24 21:06:00,74.0,63.2,27.92,SW,225,2.0,15.0,69,0.44,,SKC,0.00,VWS V15.00,2014-01-25 03:06:00,
2014-01-24 21:07:00,34.0,12.8,28.07,SW,225,6.0,6.0,41,0.00,,SKC,0.00,VWS V15.00,2014-01-25 03:07:00,
2014-01-24 21:08:00,74.0,63.6,27.92,South,180,2.0,15.0,70,0.44,,SKC,0.00,VWS V15.00,2014-01-25 03:08:00,
2014-01-24 21:09:00,74.0,63.6,27.92,South,180,2.0,15.0,70,0.44,,SKC,0.00,VWS V15.00,2014-01-25 03:09:00,
2014-01-24 21:12:00,34.0,12.8,28.06,West,270,5.0,7.0,41,0.00,,SKC,0.00,VWS V15.00,2014-01-25 03:12:00,
2014-01-24 21:17:00,34.0,12.8,28.06,SW,225,7.0,7.0,41,0.00,,SKC,0.00,VWS V15.00,2014-01-25 03:17:00,
2014-01-24 21:22:00,35.0,13.1,28.06,SW,225,7.0,9.0,40,0.00,,SKC,0.00,VWS V15.00,2014-01-25 03:22:00,
2014-01-24 21:27:00,35.0,12.6,28.06,SW,225,6.0,7.0,39,0.00,,SKC,0.00,VWS V15.00,2014-01-25 03:27:00,
2014-01-24 21:32:00,35.0,12.6,28.06,SW,225,7.0,8.0,39,0.00,,SKC,0.00,VWS V15.00,2014-01-25 03:32:00,
2014-01-24 21:37:00,35.0,12.6,28.06,SW,225,6.0,6.0,39,0.00,,SKC,0.00,VWS V15.00,2014-01-25 03:37:00,
2014-01-24 21:42:00,34.0,11.7,28.06,WSW,247,5.0,7.0,39,0.00,,SKC,0.00,VWS V15.00,2014-01-25 03:42:00,
2014-01-24 21:47:00,34.0,12.2,28.05,SW,225,5.0,6.0,40,0.00,,SKC,0.00,VWS V15.00,2014-01-25 03:47:00,
2014-01-24 21:51:00,78.0,28.2,27.75,SE,135,5.0,30.0,16,0.15,,SKC,0.00,VWS V15.00,2014-01-25 03:51:00,
2014-01-24 21:52:00,34.0,12.8,28.05,WSW,247,5.0,6.0,41,0.00,,SKC,0.00,VWS V15.00,2014-01-25 03:52:00,
2014-01-24 21:53:00,79.0,27.5,27.75,SSE,157,6.0,30.0,15,0.15,,SKC,0.00,VWS V15.00,2014-01-25 03:53:00,
2014-01-24 21:54:00,79.0,27.5,27.75,SW,225,6.0,30.0,15,0.15,,SKC,0.00,VWS V15.00,2014-01-25 03:54:00,
2014-01-24 21:55:00,79.0,27.5,27.75,SW,225,4.0,30.0,15,0.15,,SKC,0.00,VWS V15.00,2014-01-25 03:55:00,
2014-01-24 21:57:00,33.0,11.9,28.05,SW,225,5.0,6.0,41,0.00,,SKC,0.00,VWS V15.00,2014-01-25 03:57:00,
2014-01-24 22:02:00,33.0,11.9,28.05,WSW,247,5.0,6.0,41,0.00,,SKC,0.00,VWS V15.00,2014-01-25 04:02:00,
2014-01-24 22:07:00,33.0,11.9,28.05,WSW,247,7.0,8.0,41,0.00,,SKC,0.00,VWS V15.00,2014-01-25 04:07:00,
2014-01-24 22:12:00,33.0,12.4,28.05,SW,225,4.0,7.0,42,0.00,,SKC,0.00,VWS V15.00,2014-01-25 04:12:00,
2014-01-24 22:17:00,32.0,11.5,28.05,WSW,247,3.0,5.0,42,0.00,,SKC,0.00,VWS V15.00,2014-01-25 04:17:00,
2014-01-24 22:22:00,32.0,12.6,28.05,WSW,247,2.0,4.0,44,0.00,,SKC,0.00,VWS V15.00,2014-01-25 04:22:00,
2014-01-24 22:27:00,31.0,11.7,28.05,West,270,3.0,5.0,44,0.00,,SKC,0.00,VWS V15.00,2014-01-25 04:27:00,
2014-01-24 22:32:00,31.0,12.2,28.05,WSW,247,4.0,6.0,45,0.00,,SKC,0.00,VWS V15.00,2014-01-25 04:32:00,
2014-01-24 22:37:00,31.0,11.7,28.04,WSW,247,2.0,6.0,44,0.00,,SKC,0.00,VWS V15.00,2014-01-25 04:37:00,
2014-01-24 22:40:00,79.0,27.5,27.73,South,180,6.0,30.0,15,0.15,,SKC,0.00,VWS V15.00,2014-01-25 04:40:00,
2014-01-24 22:41:00,79.0,27.5,27.73,South,180,2.0,30.0,15,0.15,,SKC,0.00,VWS V15.00,2014-01-25 04:41:00,
2014-01-24 22:42:00,31.0,11.7,28.04,WSW,247,2.0,4.0,44,0.00,,SKC,0.00,VWS V15.00,2014-01-25 04:42:00,
2014-01-24 22:43:00,80.0,28.2,27.73,SW,225,3.0,30.0,15,0.15,,SKC,0.00,VWS V15.00,2014-01-25 04:43:00,
2014-01-24 22:44:00,80.0,28.2,27.73,SSW,202,2.0,30.0,15,0.15,,SKC,0.00,VWS V15.00,2014-01-25 04:44:00,
2014-01-24 22:47:00,31.0,12.2,28.03,WSW,247,3.0,4.0,45,0.00,,SKC,0.00,VWS V15.00,2014-01-25 04:47:00,
2014-01-24 22:52:00,30.0,11.7,28.03,WSW,247,3.0,3.0,46,0.00,,SKC,0.00,VWS V15.00,2014-01-25 04:52:00,
2014-01-24 22:57:00,30.0,12.2,28.03,West,270,3.0,5.0,47,0.00,,SKC,0.00,VWS V15.00,2014-01-25 04:57:00,
2014-01-24 23:04:00,30.0,12.2,28.03,WSW,247,4.0,4.0,47,0.00,,SKC,0.00,VWS V15.00,2014-01-25 05:04:00,
2014-01-24 23:07:00,78.0,72.1,27.83,South,180,7.0,25.0,82,0.00,,SKC,0.00,VWS V15.00,2014-01-25 05:07:00,
2014-01-24 23:08:00,78.0,72.1,27.83,SW,225,7.0,25.0,82,0.00,,SKC,0.00,VWS V15.00,2014-01-25 05:08:00,
2014-01-24 23:09:00,30.0,12.2,28.03,WSW,247,4.0,6.0,47,0.00,,SKC,0.00,VWS V15.00,2014-01-25 05:09:00,
2014-01-24 23:10:00,78.0,72.4,27.83,SW,225,9.0,25.0,83,0.00,,SKC,0.00,VWS V15.00,2014-01-25 05:10:00,
2014-01-24 23:11:00,78.0,72.4,27.83,SW,225,11.0,25.0,83,0.00,,SKC,0.00,VWS V15.00,2014-01-25 05:11:00,
2014-01-24 23:14:00,30.0,12.2,28.03,WSW,247,1.0,2.0,47,0.00,,SKC,0.00,VWS V15.00,2014-01-25 05:14:00,
2014-01-24 23:19:00,29.0,11.3,28.03,WSW,247,3.0,4.0,47,0.00,,SKC,0.00,VWS V15.00,2014-01-25 05:19:00,
2014-01-24 23:24:00,29.0,11.3,28.03,WSW,247,0.0,0.0,47,46.00,,SKC,0.00,VWS V15.00,2014-01-25 05:24:00,
2014-01-24 23:29:00,29.0,11.3,28.03,WSW,247,0.0,1.0,47,0.00,,SKC,0.00,VWS V15.00,2014-01-25 05:29:00,
2014-01-24 23:34:00,29.0,11.3,28.02,WSW,247,0.0,0.0,47,0.00,,SKC,0.00,VWS V15.00,2014-01-25 05:34:00,
2014-01-24 23:39:00,29.0,11.3,28.02,WSW,247,3.0,3.0,47,0.00,,SKC,0.00,VWS V15.00,2014-01-25 05:39:00,
2014-01-24 23:44:00,29.0,11.3,28.02,WSW,247,2.0,3.0,47,0.00,,SKC,0.00,VWS V15.00,2014-01-25 05:44:00,
2014-01-24 23:49:00,29.0,11.3,28.02,West,270,3.0,3.0,47,0.00,,SKC,0.00,VWS V15.00,2014-01-25 05:49:00,
2014-01-24 23:54:00,29.0,11.3,28.02,WSW,247,4.0,4.0,47,0.00,,SKC,0.00,VWS V15.00,2014-01-25 05:54:00,
2014-01-24 23:59:00,30.0,11.7,28.01,SW,225,2.0,6.0,46,0.00,,SKC,0.00,VWS V15.00,2014-01-25 05:59:00,